Time;durP1;ratioP1;P1;durP2;ratioP2;P2;SDS_P1;SDS_P2;PMS_P1;PMS_P2;Temp;Humidity;BMP_temperature;BMP_pressure;BME280_temperature;BME280_humidity;BME280_pressure;Samples;Min_cycle;Max_cycle;Signal;HPM_P1;HPM_P2
2023/05/01 00:00:05;;;;;;;6.80;3.28;;;11.60;99.90;;;;;;5104520;28;20120;-58
2023/05/01 00:02:30;;;;;;;5.32;3.05;;;11.60;99.90;;;;;;5104319;28;20043;-58
2023/05/01 00:04:56;;;;;;;6.82;3.40;;;11.50;99.90;;;;;;5104307;28;20035;-59
2023/05/01 00:07:23;;;;;;;6.95;3.22;;;11.60;99.90;;;;;;5097296;27;20075;-58
2023/05/01 00:09:50;;;;;;;6.47;2.80;;;11.40;99.90;;;;;;5104752;28;20036;-58
2023/05/01 00:12:16;;;;;;;6.65;3.20;;;11.30;99.90;;;;;;5104750;27;20039;-58
2023/05/01 00:14:41;;;;;;;8.93;3.03;;;11.30;99.90;;;;;;5104333;27;20081;-58
2023/05/01 00:17:07;;;;;;;9.18;3.78;;;11.30;99.90;;;;;;5103783;27;20121;-58
2023/05/01 00:19:32;;;;;;;6.55;3.47;;;11.20;99.90;;;;;;5103328;28;20028;-58
2023/05/01 00:21:58;;;;;;;8.13;3.67;;;11.10;99.90;;;;;;5119894;27;20057;-57
2023/05/01 00:24:23;;;;;;;6.95;3.40;;;11.10;99.90;;;;;;5103725;28;20055;-58
2023/05/01 00:26:49;;;;;;;7.40;3.72;;;10.90;99.90;;;;;;5104418;28;20533;-58
2023/05/01 00:29:15;;;;;;;7.22;3.22;;;10.90;99.90;;;;;;5102822;27;20040;-58
2023/05/01 00:31:42;;;;;;;5.57;3.10;;;10.90;99.90;;;;;;5103835;28;20052;-58
2023/05/01 00:34:09;;;;;;;6.57;3.50;;;10.70;99.90;;;;;;5103536;27;20654;-58
2023/05/01 00:36:34;;;;;;;6.25;3.55;;;10.80;99.90;;;;;;5103568;27;20044;-58
2023/05/01 00:39:00;;;;;;;6.28;3.13;;;10.70;99.90;;;;;;5104353;28;20396;-58
2023/05/01 00:41:26;;;;;;;6.70;4.13;;;10.60;99.90;;;;;;5102424;28;20108;-58
2023/05/01 00:43:51;;;;;;;4.93;3.35;;;10.60;99.90;;;;;;5103479;28;20036;-58
2023/05/01 00:46:17;;;;;;;6.47;3.65;;;10.40;99.90;;;;;;5103444;28;20047;-58
2023/05/01 00:48:43;;;;;;;7.43;3.38;;;10.60;99.90;;;;;;5103494;28;20130;-58
2023/05/01 00:51:09;;;;;;;7.85;3.80;;;10.50;99.90;;;;;;5099874;27;20115;-58
2023/05/01 00:53:35;;;;;;;6.50;3.33;;;10.50;99.90;;;;;;5103685;28;20455;-58
2023/05/01 00:56:01;;;;;;;5.57;3.47;;;10.50;99.90;;;;;;5103786;28;20316;-58
2023/05/01 00:58:27;;;;;;;4.93;3.33;;;10.40;99.90;;;;;;5103259;28;20081;-58
2023/05/01 01:00:54;;;;;;;5.70;3.42;;;10.40;99.90;;;;;;5103426;28;20092;-58
2023/05/01 01:03:19;;;;;;;6.07;3.63;;;10.30;99.90;;;;;;5101688;27;20069;-58
2023/05/01 01:06:08;;;;;;;9.27;3.60;;;10.60;99.90;;;;;;5085159;28;20575;-58
2023/05/01 01:08:53;;;;;;;8.02;4.03;;;10.50;99.90;;;;;;5102984;28;20035;-58
2023/05/01 01:11:37;;;;;;;10.38;4.55;;;10.40;99.90;;;;;;5084843;27;20570;-58
2023/05/01 01:14:06;;;;;;;8.40;3.90;;;10.30;99.90;;;;;;5094510;27;20040;-58
2023/05/01 01:16:53;;;;;;;9.40;3.83;;;10.10;99.90;;;;;;5103328;28;20032;-58
2023/05/01 01:19:44;;;;;;;6.25;3.83;;;10.20;99.90;;;;;;5100137;28;20404;-58
2023/05/01 01:22:21;;;;;;;7.28;3.85;;;10.40;99.90;;;;;;5102631;28;20410;-58
2023/05/01 01:25:15;;;;;;;8.68;4.10;;;10.20;99.90;;;;;;5102406;28;20032;-58
2023/05/01 01:28:22;;;;;;;6.13;3.90;;;10.30;99.90;;;;;;5103003;28;20380;-58
2023/05/01 01:31:04;;;;;;;6.05;4.00;;;10.20;99.90;;;;;;5100888;28;20031;-58
2023/05/01 01:33:53;;;;;;;9.07;4.03;;;10.30;99.90;;;;;;5102496;28;20043;-58
2023/05/01 01:36:29;;;;;;;11.93;4.30;;;10.40;99.90;;;;;;5101167;27;20096;-58
2023/05/01 01:39:23;;;;;;;7.80;4.25;;;10.30;99.90;;;;;;5102823;28;20382;-58
2023/05/01 01:41:51;;;;;;;;;;;10.20;99.90;;;;;;5103005;28;20070;-58
2023/05/01 01:44:33;;;;;;;6.32;3.88;;;10.20;99.90;;;;;;5101948;28;19920;-58
2023/05/01 01:47:03;;;;;;;7.05;4.30;;;10.30;99.90;;;;;;5101830;27;20060;-58
2023/05/01 01:49:31;;;;;;;6.18;4.15;;;10.20;99.90;;;;;;5102340;28;20111;-58
2023/05/01 01:51:59;;;;;;;6.50;3.97;;;10.40;99.90;;;;;;5102832;28;20042;-58
2023/05/01 01:54:40;;;;;;;7.07;4.07;;;10.30;99.90;;;;;;5101081;28;20452;-58
2023/05/01 01:57:08;;;;;;;6.07;3.88;;;10.30;99.90;;;;;;5094230;28;20392;-58
2023/05/01 01:59:34;;;;;;;8.85;4.22;;;10.30;99.90;;;;;;5102382;28;20036;-58
2023/05/01 02:02:01;;;;;;;9.40;4.00;;;10.30;99.90;;;;;;5083914;28;20817;-58
2023/05/01 02:04:28;;;;;;;8.65;3.55;;;10.30;99.90;;;;;;5101932;28;20043;-58
2023/05/01 02:06:58;;;;;;;6.28;3.63;;;10.30;99.90;;;;;;5102046;28;20054;-58
2023/05/01 02:09:26;;;;;;;6.97;4.18;;;10.30;99.90;;;;;;5083276;28;20040;-58
2023/05/01 02:11:56;;;;;;;7.55;4.10;;;10.30;99.90;;;;;;5118336;27;20122;-58
2023/05/01 02:14:25;;;;;;;10.00;4.22;;;10.30;99.90;;;;;;5083655;27;20483;-58
2023/05/01 02:16:51;;;;;;;10.95;4.72;;;10.30;99.90;;;;;;5096062;28;20108;-58
2023/05/01 02:19:18;;;;;;;6.47;3.97;;;10.20;99.90;;;;;;5101101;28;20099;-58
2023/05/01 02:21:44;;;;;;;9.45;4.40;;;10.20;99.90;;;;;;5101854;28;20049;-58
2023/05/01 02:24:11;;;;;;;6.50;4.35;;;10.20;99.90;;;;;;5101072;28;20119;-58
2023/05/01 02:26:43;;;;;;;7.18;4.47;;;10.20;99.90;;;;;;5101547;28;20042;-58
2023/05/01 02:29:09;;;;;;;7.38;4.22;;;10.20;99.90;;;;;;5101252;28;20088;-58
2023/05/01 02:31:35;;;;;;;6.60;4.07;;;10.10;99.90;;;;;;5101490;28;20403;-58
2023/05/01 02:34:00;;;;;;;6.68;4.03;;;10.10;99.90;;;;;;5102000;28;20032;-58
2023/05/01 02:36:26;;;;;;;7.20;4.45;;;10.10;99.90;;;;;;5100882;28;20490;-58
2023/05/01 02:38:53;;;;;;;9.40;4.60;;;10.10;99.90;;;;;;5101838;28;20030;-58
2023/05/01 02:41:21;;;;;;;6.15;4.18;;;10.00;99.90;;;;;;5100689;28;20032;-58
2023/05/01 02:43:52;;;;;;;6.50;4.30;;;10.00;99.90;;;;;;5101820;28;20054;-58
2023/05/01 02:46:19;;;;;;;7.50;4.50;;;10.00;99.90;;;;;;5101067;28;20032;-58
2023/05/01 02:48:46;;;;;;;7.97;4.80;;;10.10;99.90;;;;;;5101722;28;20088;-58
2023/05/01 02:51:13;;;;;;;8.80;4.70;;;10.10;99.90;;;;;;5100825;28;20396;-58
2023/05/01 02:53:39;;;;;;;6.38;4.53;;;10.10;99.90;;;;;;5085174;28;20028;-58
2023/05/01 02:56:07;;;;;;;7.40;4.82;;;10.00;99.90;;;;;;5101011;27;20039;-58
2023/05/01 02:58:33;;;;;;;7.63;4.75;;;10.00;99.90;;;;;;5101579;28;20035;-58
2023/05/01 03:00:59;;;;;;;8.40;4.78;;;10.00;99.90;;;;;;5101400;28;20091;-58
2023/05/01 03:03:26;;;;;;;7.90;4.72;;;10.00;99.90;;;;;;5100276;28;20043;-58
2023/05/01 03:05:52;;;;;;;8.88;4.60;;;9.90;99.90;;;;;;5103678;28;20027;-58
2023/05/01 03:08:17;;;;;;;10.40;4.90;;;9.90;99.90;;;;;;5105284;28;20035;-58
2023/05/01 03:10:43;;;;;;;7.97;4.50;;;9.80;99.90;;;;;;5105857;28;20024;-58
2023/05/01 03:13:10;;;;;;;6.55;4.38;;;9.70;99.90;;;;;;5105451;27;20048;-58
2023/05/01 03:15:36;;;;;;;9.88;4.30;;;9.70;99.90;;;;;;5089591;27;20034;-58
2023/05/01 03:18:02;;;;;;;7.93;4.55;;;9.70;99.90;;;;;;5104626;28;20138;-58
2023/05/01 03:20:28;;;;;;;7.53;4.45;;;9.70;99.90;;;;;;5121167;27;20107;-58
2023/05/01 03:22:54;;;;;;;9.85;4.40;;;9.60;99.90;;;;;;5105155;28;20385;-58
2023/05/01 03:25:20;;;;;;;6.63;4.03;;;9.50;99.90;;;;;;5104356;27;20043;-58
2023/05/01 03:27:45;;;;;;;8.00;4.13;;;9.60;99.90;;;;;;5105544;28;20040;-58
2023/05/01 03:30:11;;;;;;;8.00;4.38;;;9.50;99.90;;;;;;5104577;28;20138;-58
2023/05/01 03:32:37;;;;;;;7.15;4.25;;;9.50;99.90;;;;;;5105219;28;20039;-58
2023/05/01 03:35:03;;;;;;;7.38;4.65;;;9.40;99.90;;;;;;5104725;28;20100;-58
2023/05/01 03:37:29;;;;;;;6.82;4.15;;;9.50;99.90;;;;;;5104664;27;20043;-58
2023/05/01 03:39:54;;;;;;;7.97;4.38;;;9.40;99.90;;;;;;5105219;28;20085;-58
2023/05/01 03:42:20;;;;;;;6.18;3.90;;;9.30;99.90;;;;;;5101584;27;20042;-58
2023/05/01 03:44:45;;;;;;;7.55;4.05;;;9.30;99.90;;;;;;5086587;28;20045;-58
2023/05/01 03:47:11;;;;;;;6.43;3.80;;;9.20;99.90;;;;;;5098879;27;20155;-60
2023/05/01 03:49:36;;;;;;;7.45;4.15;;;9.20;99.90;;;;;;5086604;28;20024;-57
2023/05/01 03:52:02;;;;;;;6.45;4.05;;;9.20;99.90;;;;;;5120409;27;20051;-58
2023/05/01 03:54:27;;;;;;;5.80;3.67;;;9.30;99.90;;;;;;5104855;28;20040;-59
2023/05/01 03:56:53;;;;;;;6.90;3.80;;;9.30;99.90;;;;;;5104613;28;20063;-58
2023/05/01 03:59:19;;;;;;;7.10;4.22;;;9.30;99.90;;;;;;5087199;28;20453;-58
2023/05/01 04:01:44;;;;;;;6.53;4.15;;;9.40;99.90;;;;;;5120514;27;20051;-58
2023/05/01 04:04:10;;;;;;;9.80;4.20;;;9.40;99.90;;;;;;5104325;28;20047;-58
2023/05/01 04:06:36;;;;;;;8.60;4.13;;;9.30;99.90;;;;;;5120235;27;20100;-58
2023/05/01 04:09:01;;;;;;;8.70;4.30;;;9.20;99.90;;;;;;5103613;28;20044;-59
2023/05/01 04:11:27;;;;;;;7.75;4.00;;;9.00;99.90;;;;;;5105150;27;20046;-58
2023/05/01 04:13:53;;;;;;;7.82;3.67;;;9.10;99.90;;;;;;5104467;28;20032;-58
2023/05/01 04:16:18;;;;;;;7.82;3.78;;;9.10;99.90;;;;;;5103712;28;20097;-58
2023/05/01 04:18:44;;;;;;;8.07;4.13;;;9.10;99.90;;;;;;5103370;28;20027;-57
2023/05/01 04:21:09;;;;;;;6.80;4.05;;;9.20;99.90;;;;;;5087153;27;20036;-62
2023/05/01 04:23:35;;;;;;;6.22;3.90;;;9.20;99.90;;;;;;5104154;28;20027;-58
2023/05/01 04:26:00;;;;;;;7.68;3.90;;;9.20;99.90;;;;;;5104422;28;20471;-58
2023/05/01 04:28:29;;;;;;;9.45;4.30;;;9.10;99.90;;;;;;5102919;27;20540;-58
2023/05/01 04:30:55;;;;;;;6.95;4.18;;;9.20;99.90;;;;;;5103715;27;20085;-58
2023/05/01 04:33:21;;;;;;;9.70;3.97;;;9.20;99.90;;;;;;5103880;28;20620;-58
2023/05/01 04:35:47;;;;;;;7.20;4.05;;;9.10;99.90;;;;;;5104039;28;20047;-58
2023/05/01 04:38:13;;;;;;;8.05;4.45;;;9.30;99.90;;;;;;5103191;28;20097;-58
2023/05/01 04:40:38;;;;;;;6.50;4.28;;;9.30;99.90;;;;;;5104049;28;20032;-58
2023/05/01 04:43:04;;;;;;;7.78;4.03;;;9.30;99.90;;;;;;5097138;27;20027;-58
2023/05/01 04:45:30;;;;;;;7.97;4.40;;;9.20;99.90;;;;;;5103800;28;21288;-58
2023/05/01 04:47:56;;;;;;;6.68;3.50;;;9.20;99.90;;;;;;5103855;28;20494;-58
2023/05/01 04:50:21;;;;;;;6.85;4.45;;;9.10;99.90;;;;;;5103419;28;20032;-58
2023/05/01 04:52:47;;;;;;;7.97;3.97;;;9.20;99.90;;;;;;5103072;27;20036;-59
2023/05/01 04:55:13;;;;;;;6.13;3.97;;;9.40;99.90;;;;;;5103038;27;20031;-58
2023/05/01 04:57:38;;;;;;;7.68;4.00;;;9.40;99.90;;;;;;5103790;28;20038;-58
2023/05/01 05:00:04;;;;;;;8.05;4.07;;;9.40;99.90;;;;;;5102876;27;20028;-58
2023/05/01 05:02:30;;;;;;;8.40;3.92;;;9.40;99.90;;;;;;5103464;28;20039;-58
2023/05/01 05:04:56;;;;;;;7.32;4.00;;;9.40;99.90;;;;;;5102696;27;20091;-58
2023/05/01 05:07:22;;;;;;;5.55;3.97;;;9.50;99.90;;;;;;5102993;28;20434;-58
2023/05/01 05:09:47;;;;;;;9.52;4.18;;;9.60;99.90;;;;;;5103446;28;20028;-58
2023/05/01 05:12:16;;;;;;;5.68;4.03;;;9.60;99.90;;;;;;5103657;28;20031;-58
2023/05/01 05:14:42;;;;;;;7.30;4.10;;;9.60;99.90;;;;;;5099211;27;20067;-58
2023/05/01 05:17:08;;;;;;;6.30;4.22;;;9.70;99.90;;;;;;5098560;28;20453;-58
2023/05/01 05:19:34;;;;;;;5.65;4.05;;;9.70;99.90;;;;;;5103107;28;20035;-58
2023/05/01 05:22:03;;;;;;;7.20;4.35;;;9.80;99.90;;;;;;5103157;28;20032;-58
2023/05/01 05:24:29;;;;;;;6.40;4.07;;;9.90;99.90;;;;;;5103071;28;20073;-58
2023/05/01 05:26:54;;;;;;;8.02;4.68;;;9.90;99.90;;;;;;5088117;28;20034;-58
2023/05/01 05:29:20;;;;;;;8.38;4.60;;;10.00;99.90;;;;;;5100241;28;20383;-58
2023/05/01 05:31:46;;;;;;;8.85;5.20;;;10.20;99.90;;;;;;5102860;28;20110;-58
2023/05/01 05:34:12;;;;;;;11.45;4.63;;;10.30;99.90;;;;;;5102615;28;20216;-58
2023/05/01 05:36:37;;;;;;;7.32;4.57;;;10.40;99.90;;;;;;5102191;28;20120;-58
2023/05/01 05:39:03;;;;;;;7.80;4.80;;;10.60;99.90;;;;;;5102530;28;20032;-58
2023/05/01 05:41:28;;;;;;;7.95;4.60;;;10.80;99.90;;;;;;5103020;28;20106;-58
2023/05/01 05:43:54;;;;;;;7.22;4.68;;;10.90;99.90;;;;;;5102120;28;20032;-58
2023/05/01 05:46:20;;;;;;;8.80;4.40;;;10.90;99.90;;;;;;5101977;28;20042;-58
2023/05/01 05:48:45;;;;;;;7.80;4.38;;;11.10;99.90;;;;;;5088750;27;20028;-58
2023/05/01 05:51:11;;;;;;;6.22;3.97;;;11.10;99.90;;;;;;5098744;28;20138;-58
2023/05/01 05:53:36;;;;;;;7.05;4.43;;;11.20;99.90;;;;;;5102504;28;20022;-58
2023/05/01 05:56:03;;;;;;;7.80;4.60;;;11.40;99.90;;;;;;5102412;28;20036;-58
2023/05/01 05:58:29;;;;;;;7.38;4.80;;;13.00;99.90;;;;;;5101932;28;20059;-58
2023/05/01 06:00:55;;;;;;;6.93;4.38;;;11.60;99.90;;;;;;5117756;27;20149;-58
2023/05/01 06:03:20;;;;;;;7.32;4.18;;;11.60;99.90;;;;;;5101703;28;20544;-58
2023/05/01 06:05:46;;;;;;;6.68;4.03;;;11.70;99.90;;;;;;5102548;28;20027;-59
2023/05/01 06:08:13;;;;;;;7.22;4.30;;;11.90;99.90;;;;;;5102110;28;20024;-58
2023/05/01 06:10:40;;;;;;;7.22;4.00;;;12.00;99.90;;;;;;5089906;28;20119;-58
2023/05/01 06:13:07;;;;;;;6.10;4.10;;;12.20;99.90;;;;;;5098998;27;20035;-58
2023/05/01 06:15:33;;;;;;;6.10;3.80;;;12.30;99.90;;;;;;5102217;28;20065;-59
2023/05/01 06:17:59;;;;;;;6.28;3.80;;;12.30;99.90;;;;;;5101958;28;20639;-58
2023/05/01 06:20:25;;;;;;;5.20;3.45;;;12.40;99.90;;;;;;5099151;27;20032;-59
2023/05/01 06:22:50;;;;;;;6.88;3.70;;;12.50;99.90;;;;;;5098641;27;20035;-58
2023/05/01 06:25:16;;;;;;;7.28;4.05;;;12.40;99.90;;;;;;5101846;28;20059;-58
2023/05/01 06:27:42;;;;;;;5.35;3.90;;;12.60;99.90;;;;;;5101783;28;20112;-58
2023/05/01 06:30:08;;;;;;;5.63;3.63;;;12.70;99.90;;;;;;5101151;27;20177;-59
2023/05/01 06:32:34;;;;;;;7.80;3.60;;;12.80;99.90;;;;;;5092348;28;20038;-58
2023/05/01 06:35:00;;;;;;;6.18;3.80;;;12.90;99.90;;;;;;5117616;27;20035;-58
2023/05/01 06:37:25;;;;;;;4.75;3.17;;;13.10;99.90;;;;;;5101417;28;20043;-58
2023/05/01 06:39:51;;;;;;;4.63;3.17;;;13.10;99.90;;;;;;5101751;28;20039;-60
2023/05/01 06:42:16;;;;;;;4.78;3.05;;;13.20;99.90;;;;;;5100569;28;20078;-59
2023/05/01 06:44:42;;;;;;;8.82;3.40;;;13.20;99.90;;;;;;5101683;28;20086;-59
2023/05/01 06:47:08;;;;;;;5.80;3.22;;;13.40;99.90;;;;;;5101266;28;20058;-58
2023/05/01 06:49:34;;;;;;;6.65;3.22;;;13.50;99.90;;;;;;5101726;28;20055;-58
2023/05/01 06:52:00;;;;;;;4.88;3.03;;;13.60;99.90;;;;;;5101842;28;20038;-58
2023/05/01 06:54:26;;;;;;;5.70;2.88;;;13.60;99.90;;;;;;5100912;28;20075;-59
2023/05/01 06:56:54;;;;;;;5.15;3.30;;;13.70;99.90;;;;;;5101632;28;20036;-58
2023/05/01 06:59:20;;;;;;;6.28;3.15;;;13.80;99.90;;;;;;5101066;28;20032;-58
2023/05/01 07:01:45;;;;;;;6.13;3.15;;;13.90;99.90;;;;;;5101361;28;20100;-58
2023/05/01 07:04:11;;;;;;;4.57;3.00;;;13.90;99.90;;;;;;5082236;28;20038;-59
2023/05/01 07:06:37;;;;;;;6.57;3.33;;;14.00;99.90;;;;;;5101775;27;20119;-58
2023/05/01 07:09:05;;;;;;;3.17;2.72;;;14.00;99.90;;;;;;5101405;28;20306;-59
2023/05/01 07:11:31;;;;;;;4.75;3.10;;;14.10;99.90;;;;;;5102467;28;20049;-59
2023/05/01 07:13:57;;;;;;;8.30;3.33;;;14.20;99.90;;;;;;5101834;28;20028;-58
2023/05/01 07:16:23;;;;;;;6.60;3.10;;;14.20;99.90;;;;;;5100464;28;20039;-58
2023/05/01 07:18:49;;;;;;;4.53;2.95;;;14.20;99.90;;;;;;5101693;28;20036;-58
2023/05/01 07:21:14;;;;;;;7.88;3.28;;;14.30;99.90;;;;;;5101284;28;20036;-58
2023/05/01 07:23:40;;;;;;;3.67;2.55;;;14.50;99.90;;;;;;5101023;28;20073;-59
2023/05/01 07:26:06;;;;;;;4.82;2.67;;;14.50;99.90;;;;;;5082538;28;20035;-59
2023/05/01 07:28:31;;;;;;;3.60;2.63;;;14.50;99.90;;;;;;5093189;28;20038;-58
2023/05/01 07:30:57;;;;;;;7.10;2.92;;;14.60;99.90;;;;;;5101548;28;20104;-58
2023/05/01 07:33:26;;;;;;;4.47;3.20;;;14.60;99.90;;;;;;5101134;28;20031;-58
2023/05/01 07:35:52;;;;;;;8.90;3.20;;;14.60;99.90;;;;;;5101245;28;20063;-59
2023/05/01 07:38:18;;;;;;;4.68;2.85;;;14.70;99.90;;;;;;5100196;27;20443;-59
2023/05/01 07:40:43;;;;;;;7.00;3.00;;;14.80;99.90;;;;;;5101309;27;20028;-58
2023/05/01 07:43:12;;;;;;;9.23;3.30;;;14.90;99.90;;;;;;5090635;28;20119;-58
2023/05/01 07:45:38;;;;;;;5.28;3.10;;;15.10;99.90;;;;;;5096305;28;20491;-59
2023/05/01 07:48:04;;;;;;;10.65;3.97;;;15.20;99.90;;;;;;5101153;28;20027;-58
2023/05/01 07:50:30;;;;;;;6.63;3.30;;;15.20;99.90;;;;;;5100303;28;20023;-59
2023/05/01 07:52:56;;;;;;;5.65;3.22;;;15.30;99.90;;;;;;5103187;28;20486;-58
2023/05/01 07:55:22;;;;;;;8.63;3.40;;;15.30;99.90;;;;;;5104824;28;20857;-58
2023/05/01 07:57:48;;;;;;;4.57;3.13;;;15.30;99.90;;;;;;5105347;28;20103;-58
2023/05/01 08:00:13;;;;;;;3.78;2.75;;;15.20;99.90;;;;;;5104079;28;20598;-59
2023/05/01 08:02:40;;;;;;;5.55;3.05;;;15.30;99.90;;;;;;5104713;28;20047;-58
2023/05/01 08:05:06;;;;;;;6.15;3.47;;;15.50;99.90;;;;;;5120100;27;20036;-58
2023/05/01 08:07:31;;;;;;;4.50;2.90;;;15.60;99.90;;;;;;5104513;28;20051;-58
2023/05/01 08:09:59;;;;;;;6.65;3.40;;;15.60;99.90;;;;;;5104833;28;20039;-58
2023/05/01 08:12:24;;;;;;;5.70;3.00;;;15.60;99.90;;;;;;5104382;27;20035;-58
2023/05/01 08:14:50;;;;;;;8.65;3.42;;;15.70;99.90;;;;;;5104928;28;20119;-59
2023/05/01 08:17:16;;;;;;;5.88;3.03;;;15.90;99.90;;;;;;5103359;28;20261;-58
2023/05/01 08:19:41;;;;;;;4.43;2.88;;;15.80;99.90;;;;;;5104746;28;20036;-58
2023/05/01 08:22:07;;;;;;;6.20;3.10;;;15.80;99.90;;;;;;5103378;27;20092;-58
2023/05/01 08:24:32;;;;;;;5.78;3.40;;;15.80;99.90;;;;;;5104075;28;20034;-59
2023/05/01 08:26:58;;;;;;;7.65;3.30;;;16.00;99.90;;;;;;5104405;28;20564;-58
2023/05/01 08:29:24;;;;;;;6.22;3.60;;;16.10;99.90;;;;;;5103237;28;20047;-59
2023/05/01 08:31:49;;;;;;;6.57;3.00;;;16.10;99.90;;;;;;5104268;28;20027;-58
2023/05/01 08:34:16;;;;;;;4.93;3.25;;;16.20;99.90;;;;;;5103282;27;20046;-58
2023/05/01 08:36:41;;;;;;;5.55;3.30;;;16.20;99.90;;;;;;5104097;28;20042;-59
2023/05/01 08:39:07;;;;;;;6.43;3.35;;;16.10;99.90;;;;;;5103652;28;20043;-59
2023/05/01 08:41:34;;;;;;;7.65;3.40;;;16.20;99.90;;;;;;5104125;28;20031;-59
2023/05/01 08:44:00;;;;;;;3.78;3.25;;;16.40;99.90;;;;;;5103796;28;20046;-59
2023/05/01 08:46:49;;;;;;;6.88;3.25;;;16.30;99.90;;;;;;5103539;28;20126;-58
2023/05/01 08:49:16;;;;;;;6.30;3.47;;;16.50;99.90;;;;;;5103679;28;20131;-59
2023/05/01 08:51:46;;;;;;;4.07;3.05;;;16.40;99.90;;;;;;5104420;28;20040;-59
2023/05/01 08:54:13;;;;;;;5.68;3.22;;;16.60;99.90;;;;;;5103499;28;20070;-59
2023/05/01 08:56:42;;;;;;;5.78;2.75;;;16.70;99.90;;;;;;5074363;28;20364;-58
2023/05/01 08:59:09;;;;;;;5.95;2.88;;;16.60;99.90;;;;;;5099367;28;20119;-59
2023/05/01 09:01:36;;;;;;;4.90;2.63;;;16.70;99.90;;;;;;5102982;28;20043;-59
2023/05/01 09:04:03;;;;;;;4.18;2.97;;;16.90;99.90;;;;;;5102750;27;20120;-58
2023/05/01 09:06:28;;;;;;;6.00;2.78;;;17.00;99.90;;;;;;5103201;28;20203;-59
2023/05/01 09:08:54;;;;;;;5.55;2.72;;;17.10;99.90;;;;;;5103811;28;20127;-59
2023/05/01 09:11:21;;;;;;;5.97;2.55;;;17.10;99.90;;;;;;5103728;27;20031;-59
2023/05/01 09:13:47;;;;;;;5.80;2.70;;;17.20;99.90;;;;;;5118996;27;20027;-59
2023/05/01 09:16:13;;;;;;;5.55;2.70;;;17.20;99.90;;;;;;5102002;27;20038;-59
2023/05/01 09:18:40;;;;;;;4.25;2.40;;;17.20;99.90;;;;;;5102934;27;20032;-59
2023/05/01 09:21:06;;;;;;;4.55;2.30;;;17.30;99.90;;;;;;5102988;28;20042;-59
2023/05/01 09:23:32;;;;;;;4.25;2.50;;;17.20;99.90;;;;;;5103399;28;20493;-59
2023/05/01 09:25:59;;;;;;;5.20;2.70;;;17.40;99.90;;;;;;5103135;28;20031;-58
2023/05/01 09:28:42;;;;;;;6.95;2.88;;;17.20;99.90;;;;;;5101913;27;20620;-59
2023/05/01 09:31:28;;;;;;;6.18;3.20;;;17.30;99.90;;;;;;5102691;28;20035;-59
2023/05/01 09:33:56;;;;;;;7.53;3.00;;;17.50;99.90;;;;;;5088867;28;20038;-59
2023/05/01 09:36:24;;;;;;;4.25;2.67;;;17.50;99.90;;;;;;5102555;28;20042;-59
2023/05/01 09:38:50;;;;;;;4.97;2.78;;;17.60;99.90;;;;;;5101926;28;20080;-59
2023/05/01 09:41:16;;;;;;;4.53;2.90;;;17.60;99.90;;;;;;5102451;28;20479;-59
2023/05/01 09:43:52;;;;;;;5.20;2.65;;;17.70;99.90;;;;;;5103059;28;20038;-59
2023/05/01 09:46:18;;;;;;;4.72;2.60;;;17.60;99.90;;;;;;5102282;28;20126;-59
2023/05/01 09:48:57;;;;;;;5.93;2.72;;;17.80;99.90;;;;;;5102658;28;20079;-59
2023/05/01 09:51:31;;;;;;;3.97;2.45;;;17.80;99.90;;;;;;5085214;28;20103;-59
2023/05/01 09:54:02;;;;;;;3.47;2.47;;;17.90;99.90;;;;;;5084274;28;20089;-59
2023/05/01 09:56:31;;;;;;;5.07;2.53;;;17.80;99.90;;;;;;5102444;28;20539;-59
2023/05/01 09:58:59;;;;;;;6.63;2.70;;;17.80;99.90;;;;;;5102811;28;20020;-59
2023/05/01 10:01:38;;;;;;;5.25;2.63;;;17.90;99.90;;;;;;5101422;28;20042;-59
2023/05/01 10:04:04;;;;;;;6.35;2.95;;;17.90;99.90;;;;;;5102158;28;20050;-59
2023/05/01 10:06:30;;;;;;;6.65;2.28;;;18.10;99.90;;;;;;5102960;28;20546;-59
2023/05/01 10:08:56;;;;;;;3.95;2.40;;;18.10;99.90;;;;;;5102835;28;20221;-59
2023/05/01 10:11:22;;;;;;;5.00;2.97;;;18.10;99.90;;;;;;5082212;27;20099;-59
2023/05/01 10:14:08;;;;;;;3.88;2.53;;;17.90;99.90;;;;;;5098071;28;20038;-59
2023/05/01 10:16:35;;;;;;;4.40;2.42;;;18.00;99.90;;;;;;5101715;28;20096;-59
2023/05/01 10:19:02;;;;;;;6.03;2.80;;;18.00;99.90;;;;;;5098737;27;20068;-59
2023/05/01 10:21:30;;;;;;;4.43;2.95;;;18.20;99.90;;;;;;5115153;27;20051;-59
2023/05/01 10:23:56;;;;;;;7.03;2.92;;;18.40;99.90;;;;;;5100939;27;20032;-59
2023/05/01 10:26:25;;;;;;;4.80;3.42;;;18.30;99.90;;;;;;5081371;28;20089;-59
2023/05/01 10:28:51;;;;;;;6.28;3.30;;;18.10;99.90;;;;;;5095799;28;20054;-59
2023/05/01 10:31:17;;;;;;;4.05;2.67;;;18.10;99.90;;;;;;5090471;28;20395;-59
2023/05/01 10:33:43;;;;;;;5.20;2.83;;;18.50;99.90;;;;;;5102108;28;20031;-59
2023/05/01 10:36:15;;;;;;;5.20;3.05;;;18.80;99.90;;;;;;5101065;28;20067;-59
2023/05/01 10:38:47;;;;;;;5.07;3.03;;;19.00;99.90;;;;;;5101763;28;20445;-59
2023/05/01 10:41:14;;;;;;;4.47;3.08;;;19.10;99.90;;;;;;5100710;28;20127;-59
2023/05/01 10:43:39;;;;;;;3.97;3.00;;;19.00;99.90;;;;;;5102212;28;20023;-59
2023/05/01 10:46:20;;;;;;;8.18;3.45;;;19.10;99.90;;;;;;5101574;28;20465;-59
2023/05/01 10:48:45;;;;;;;4.70;2.70;;;19.00;99.90;;;;;;5101835;28;20028;-59
2023/05/01 10:51:19;;;;;;;5.85;3.83;;;18.90;99.90;;;;;;5101042;28;20020;-59
2023/05/01 10:53:46;;;;;;;4.95;3.65;;;18.90;99.90;;;;;;5092711;28;20109;-59
2023/05/01 10:56:20;;;;;;;4.88;3.20;;;18.80;99.90;;;;;;5101366;28;20325;-59
2023/05/01 10:58:50;;;;;;;5.32;2.88;;;19.00;99.90;;;;;;5101543;28;20031;-60
2023/05/01 11:01:35;;;;;;;6.72;3.20;;;19.10;99.90;;;;;;5101109;28;20036;-59
2023/05/01 11:04:04;;;;;;;4.20;2.72;;;19.10;99.90;;;;;;5100769;28;20034;-59
2023/05/01 11:06:30;;;;;;;5.88;2.67;;;19.30;99.90;;;;;;5101090;28;20027;-60
2023/05/01 11:08:56;;;;;;;4.63;2.75;;;19.30;99.90;;;;;;5101231;28;20103;-59
2023/05/01 11:11:22;;;;;;;6.40;3.10;;;19.40;99.90;;;;;;5101921;28;20031;-59
2023/05/01 11:13:57;;;;;;;3.78;2.83;;;19.30;99.90;;;;;;5105841;28;20447;-59
2023/05/01 11:16:40;;;;;;;6.78;3.67;;;19.30;99.90;;;;;;5100381;28;20020;-59
2023/05/01 11:19:30;;;;;;;4.70;3.33;;;19.20;99.90;;;;;;5100943;28;20051;-60
2023/05/01 11:21:56;;;;;;;5.90;3.33;;;19.40;99.90;;;;;;5101450;28;20128;-59
2023/05/01 11:24:30;;;;;;;5.35;3.20;;;19.50;99.90;;;;;;5100812;28;20156;-60
2023/05/01 11:26:58;;;;;;;3.45;2.90;;;19.30;99.90;;;;;;5103401;28;20608;-60
2023/05/01 11:29:31;;;;;;;4.32;2.58;;;19.30;99.90;;;;;;5104992;28;20058;-59
2023/05/01 11:31:57;;;;;;;3.05;2.35;;;19.40;99.90;;;;;;5105369;28;20115;-59
2023/05/01 11:34:24;;;;;;;3.78;1.98;;;19.50;99.90;;;;;;5104971;28;20123;-59
2023/05/01 11:36:51;;;;;;;4.07;2.10;;;19.80;99.90;;;;;;5104753;27;20023;-60
2023/05/01 11:39:17;;;;;;;3.67;1.80;;;19.70;99.90;;;;;;5105117;28;20626;-59
2023/05/01 11:41:43;;;;;;;3.13;1.90;;;19.80;99.90;;;;;;5087051;28;20116;-60
2023/05/01 11:44:17;;;;;;;4.32;2.70;;;19.80;99.90;;;;;;5104832;28;20339;-59
2023/05/01 11:46:42;;;;;;;;;;;19.80;99.90;;;;;;5106030;28;20034;-60
2023/05/01 11:49:08;;;;;;;3.35;2.10;;;19.90;99.90;;;;;;5103538;27;19920;-59
2023/05/01 11:51:34;;;;;;;3.00;2.10;;;19.90;99.90;;;;;;5105131;28;20095;-60
2023/05/01 11:54:09;;;;;;;3.30;2.10;;;19.80;99.90;;;;;;5105023;28;20058;-60
2023/05/01 11:56:36;;;;;;;3.08;1.80;;;19.70;99.90;;;;;;5104989;28;20122;-59
2023/05/01 11:59:15;;;;;;;8.55;2.55;;;19.80;99.90;;;;;;5096920;27;20055;-60
2023/05/01 12:01:43;;;;;;;3.47;2.03;;;19.70;99.90;;;;;;5097921;28;20107;-60
2023/05/01 12:04:10;;;;;;;2.45;1.67;;;19.80;99.90;;;;;;5104549;28;20053;-59
2023/05/01 12:06:42;;;;;;;2.90;1.83;;;20.00;99.90;;;;;;5105101;28;20787;-59
2023/05/01 12:09:09;;;;;;;2.15;1.90;;;20.10;99.90;;;;;;5103843;28;20036;-60
2023/05/01 12:11:36;;;;;;;3.55;1.70;;;20.40;99.90;;;;;;5105234;27;20035;-60
2023/05/01 12:14:02;;;;;;;2.83;1.80;;;20.30;99.90;;;;;;5104074;28;20476;-59
2023/05/01 12:16:29;;;;;;;4.50;2.17;;;20.40;99.90;;;;;;5104689;28;20039;-59
2023/05/01 12:18:55;;;;;;;2.67;1.42;;;20.30;99.90;;;;;;5104356;27;20042;-60
2023/05/01 12:21:21;;;;;;;2.38;1.60;;;20.00;99.90;;;;;;5095237;27;20058;-60
2023/05/01 12:23:48;;;;;;;3.80;1.50;;;20.20;99.90;;;;;;5104479;28;20024;-60
2023/05/01 12:26:18;;;;;;;3.47;1.52;;;20.00;99.90;;;;;;5103848;28;20028;-59
2023/05/01 12:28:57;;;;;;;2.60;1.40;;;20.10;99.90;;;;;;5104290;28;20490;-59
2023/05/01 12:31:24;;;;;;;3.90;1.88;;;20.40;99.90;;;;;;5103044;27;20780;-59
2023/05/01 12:34:00;;;;;;;4.68;2.35;;;20.70;99.90;;;;;;5104122;28;20119;-60
2023/05/01 12:36:28;;;;;;;2.40;1.75;;;20.70;99.90;;;;;;5103435;28;20106;-60
2023/05/01 12:38:56;;;;;;;3.30;2.28;;;20.90;99.90;;;;;;5103592;27;20039;-60
2023/05/01 12:41:51;;;;;;;3.50;2.30;;;20.70;99.90;;;;;;5103660;28;20058;-60
2023/05/01 12:44:22;;;;;;;3.88;1.83;;;20.70;99.90;;;;;;5102768;27;20035;-59
2023/05/01 12:46:57;;;;;;;2.67;2.20;;;20.60;99.90;;;;;;5103958;28;20122;-59
2023/05/01 12:49:24;;;;;;;4.07;2.35;;;20.80;99.90;;;;;;5101076;28;20027;-60
2023/05/01 12:51:51;;;;;;;2.83;1.60;;;20.60;99.90;;;;;;5104054;28;20527;-60